Vertrees, Kentucky
Current Conditions -  °F | °C
As of 5:58 PM on Thursday 18 Dec 2014 (Local Time) from KFTK Reporting Station
Overcast Overcast  
Wind Chill: 32°   Ceiling: 7000
Heat Index: 32°   Visibility: 10mi
Dew Point: 25°   Wind: 3mph
Humidity: 75%   Direction: 320°NW
Pressure: 30.2"   Gusts: NA
Location:  37.6694°N, 86.0627°W
Report Text: KFTK 182258Z AUTO 32003KT 10SM SCT045 OVC070 00/M04 A3020 RMK AO2 SLP237 T10011041
Loading
Personal Weather Stations






























Interactive Weather Map New forecast layout! Learn more

10-Day Weather Forecast

Advertisements
Track Severe Weather on mobile